GCR7438 ZHCC-ZUZY
Flight info
| Callsign | GCR7438 |
|---|---|
| Flight time | 1h 41m |
| Altitude | 34100 |
| Route | DWS SHX W152 TAREX W278 AVDIG W276 ARELA W30 TAMUS W180 VILUS |
| Aircraft | E195/M-SDE3GHIJ2J3J5M1RVWXYZ/LB2D1 |
Departure
| Time | 2026-04-29 22:24 |
|---|---|
| Airport | Zhengzhou Xinzheng International Airport (ZHCC) |
Arrival
| Time | 2026-04-30 00:05 |
|---|---|
| Airport | Zunyi Xinzhou Airport (ZUZY) |
| Time | Latitude | Longitude | Altitude | Speed | Heading |
|---|---|---|---|---|---|
| 2026-04-29 22:01 | 34.53012 | 113.85415 | 486 ft | 0 kts | 292° |
| 2026-04-29 22:10 | 34.53009 | 113.85426 | 486 ft | 2 kts | 292° |
| 2026-04-29 22:10 | 34.53000 | 113.85451 | 484 ft | 4 kts | 292° |
| 2026-04-29 22:10 | 34.52988 | 113.85488 | 482 ft | 4 kts | 292° |
| 2026-04-29 22:10 | 34.52981 | 113.85509 | 482 ft | 0 kts | 292° |
| 2026-04-29 22:11 | 34.52981 | 113.85510 | 482 ft | 0 kts | 292° |
| 2026-04-29 22:13 | 34.52981 | 113.85509 | 482 ft | 0 kts | 292° |
| 2026-04-29 22:14 | 34.52982 | 113.85507 | 482 ft | 1 kts | 295° |
| 2026-04-29 22:14 | 34.52990 | 113.85505 | 482 ft | 2 kts | 14° |
| 2026-04-29 22:14 | 34.53020 | 113.85519 | 481 ft | 6 kts | 22° |
| 2026-04-29 22:14 | 34.53074 | 113.85547 | 481 ft | 9 kts | 23° |
| 2026-04-29 22:15 | 34.53144 | 113.85584 | 482 ft | 11 kts | 25° |
| 2026-04-29 22:15 | 34.53225 | 113.85604 | 483 ft | 12 kts | 337° |
| 2026-04-29 22:15 | 34.53267 | 113.85525 | 487 ft | 10 kts | 291° |
| 2026-04-29 22:15 | 34.53291 | 113.85452 | 491 ft | 8 kts | 293° |
| 2026-04-29 22:16 | 34.53313 | 113.85390 | 493 ft | 7 kts | 292° |
| 2026-04-29 22:16 | 34.53335 | 113.85329 | 495 ft | 8 kts | 293° |
| 2026-04-29 22:16 | 34.53363 | 113.85252 | 496 ft | 11 kts | 293° |
| 2026-04-29 22:16 | 34.53397 | 113.85152 | 497 ft | 14 kts | 292° |
| 2026-04-29 22:17 | 34.53438 | 113.85029 | 498 ft | 17 kts | 292° |
| 2026-04-29 22:17 | 34.53487 | 113.84882 | 499 ft | 19 kts | 292° |
| 2026-04-29 22:17 | 34.53536 | 113.84734 | 504 ft | 16 kts | 292° |
| 2026-04-29 22:17 | 34.53573 | 113.84622 | 508 ft | 11 kts | 292° |
| 2026-04-29 22:18 | 34.53598 | 113.84553 | 510 ft | 7 kts | 294° |
| 2026-04-29 22:18 | 34.53617 | 113.84501 | 511 ft | 5 kts | 291° |
| 2026-04-29 22:18 | 34.53626 | 113.84471 | 511 ft | 5 kts | 290° |
| 2026-04-29 22:18 | 34.53634 | 113.84446 | 512 ft | 6 kts | 290° |
| 2026-04-29 22:19 | 34.53653 | 113.84386 | 512 ft | 9 kts | 291° |
| 2026-04-29 22:19 | 34.53680 | 113.84304 | 513 ft | 12 kts | 292° |
| 2026-04-29 22:19 | 34.53718 | 113.84197 | 512 ft | 13 kts | 293° |
| 2026-04-29 22:19 | 34.53756 | 113.84093 | 510 ft | 13 kts | 294° |
| 2026-04-29 22:20 | 34.53800 | 113.84006 | 507 ft | 9 kts | 337° |
| 2026-04-29 22:20 | 34.53854 | 113.84019 | 508 ft | 6 kts | 23° |
| 2026-04-29 22:20 | 34.53883 | 113.84034 | 509 ft | 2 kts | 24° |
| 2026-04-29 22:20 | 34.53888 | 113.84037 | 509 ft | 0 kts | 24° |
| 2026-04-29 22:21 | 34.53889 | 113.84038 | 509 ft | 0 kts | 24° |
| 2026-04-29 22:21 | 34.53896 | 113.84042 | 509 ft | 2 kts | 25° |
| 2026-04-29 22:21 | 34.53921 | 113.84056 | 510 ft | 5 kts | 26° |
| 2026-04-29 22:21 | 34.53939 | 113.84087 | 510 ft | 3 kts | 95° |
| 2026-04-29 22:22 | 34.53935 | 113.84103 | 510 ft | 0 kts | 107° |
| 2026-04-29 22:22 | 34.53934 | 113.84108 | 510 ft | 4 kts | 107° |
| 2026-04-29 22:22 | 34.53929 | 113.84126 | 510 ft | 0 kts | 109° |
| 2026-04-29 22:22 | 34.53926 | 113.84137 | 511 ft | 12 kts | 109° |
| 2026-04-29 22:23 | 34.53812 | 113.84472 | 511 ft | 73 kts | 113° |
| 2026-04-29 22:23 | 34.53544 | 113.85249 | 495 ft | 125 kts | 112° |
| 2026-04-29 22:23 | 34.53160 | 113.86401 | 515 ft | 161 kts | 112° |
| 2026-04-29 22:23 | 34.52715 | 113.87711 | 785 ft | 174 kts | 114° |
| 2026-04-29 22:24 | 34.52246 | 113.89051 | 1331 ft | 172 kts | 115° |
| 2026-04-29 22:24 | 34.51780 | 113.90369 | 1847 ft | 170 kts | 122° |
| 2026-04-29 22:24 | 34.51250 | 113.91657 | 2353 ft | 170 kts | 117° |
| 2026-04-29 22:24 | 34.50778 | 113.92971 | 2893 ft | 172 kts | 115° |
| 2026-04-29 22:25 | 34.50309 | 113.94338 | 3344 ft | 182 kts | 113° |
| 2026-04-29 22:25 | 34.49822 | 113.95797 | 3794 ft | 193 kts | 112° |
| 2026-04-29 22:25 | 34.49307 | 113.97349 | 4234 ft | 206 kts | 112° |
| 2026-04-29 22:25 | 34.48743 | 113.99046 | 4665 ft | 223 kts | 112° |
| 2026-04-29 22:26 | 34.48145 | 114.00851 | 5002 ft | 245 kts | 111° |
| 2026-04-29 22:26 | 34.47477 | 114.02868 | 5452 ft | 264 kts | 111° |
| 2026-04-29 22:26 | 34.46778 | 114.04971 | 6093 ft | 274 kts | 111° |
| 2026-04-29 22:26 | 34.45783 | 114.06953 | 6709 ft | 284 kts | 137° |
| 2026-04-29 22:27 | 34.44032 | 114.07994 | 7437 ft | 286 kts | 172° |
| 2026-04-29 22:27 | 34.42038 | 114.07901 | 8269 ft | 285 kts | 185° |
| 2026-04-29 22:27 | 34.40049 | 114.07851 | 9025 ft | 288 kts | 180° |
| 2026-04-29 22:27 | 34.38023 | 114.07832 | 9783 ft | 290 kts | 180° |
| 2026-04-29 22:28 | 34.35993 | 114.07835 | 10532 ft | 291 kts | 180° |
| 2026-04-29 22:28 | 34.34024 | 114.07464 | 11196 ft | 289 kts | 208° |
| 2026-04-29 22:28 | 34.32550 | 114.05940 | 11844 ft | 279 kts | 242° |
| 2026-04-29 22:28 | 34.31952 | 114.03764 | 12531 ft | 265 kts | 270° |
| 2026-04-29 22:29 | 34.31775 | 114.01579 | 13195 ft | 266 kts | 268° |
| 2026-04-29 22:29 | 34.31558 | 113.99348 | 13823 ft | 266 kts | 269° |
| 2026-04-29 22:29 | 34.31359 | 113.97144 | 14439 ft | 266 kts | 269° |
| 2026-04-29 22:29 | 34.31156 | 113.94923 | 15066 ft | 265 kts | 270° |
| 2026-04-29 22:30 | 34.30951 | 113.92713 | 15683 ft | 264 kts | 270° |
| 2026-04-29 22:30 | 34.30750 | 113.90527 | 16281 ft | 262 kts | 270° |
| 2026-04-29 22:30 | 34.30552 | 113.88374 | 16875 ft | 258 kts | 271° |
| 2026-04-29 22:30 | 34.30356 | 113.86235 | 17480 ft | 253 kts | 271° |
| 2026-04-29 22:31 | 34.30161 | 113.84134 | 17928 ft | 255 kts | 271° |
| 2026-04-29 22:31 | 34.29965 | 113.81964 | 18312 ft | 259 kts | 271° |
| 2026-04-29 22:31 | 34.29763 | 113.79781 | 18627 ft | 266 kts | 271° |
| 2026-04-29 22:31 | 34.29555 | 113.77540 | 18910 ft | 274 kts | 271° |
| 2026-04-29 22:32 | 34.29338 | 113.75191 | 19205 ft | 281 kts | 271° |
| 2026-04-29 22:32 | 34.29116 | 113.72814 | 19503 ft | 289 kts | 271° |
| 2026-04-29 22:32 | 34.28887 | 113.70357 | 19804 ft | 297 kts | 271° |
| 2026-04-29 22:32 | 34.28647 | 113.67813 | 20116 ft | 305 kts | 271° |
| 2026-04-29 22:33 | 34.28402 | 113.65199 | 20426 ft | 313 kts | 270° |
| 2026-04-29 22:33 | 34.28151 | 113.62552 | 20728 ft | 321 kts | 270° |
| 2026-04-29 22:33 | 34.27898 | 113.59837 | 21032 ft | 329 kts | 270° |
| 2026-04-29 22:33 | 34.27629 | 113.57007 | 21341 ft | 337 kts | 270° |
| 2026-04-29 22:34 | 34.27360 | 113.54184 | 21648 ft | 345 kts | 270° |
| 2026-04-29 22:34 | 34.27082 | 113.51281 | 21958 ft | 352 kts | 270° |
| 2026-04-29 22:34 | 34.26799 | 113.48285 | 22276 ft | 360 kts | 270° |
| 2026-04-29 22:34 | 34.26503 | 113.45200 | 22601 ft | 367 kts | 270° |
| 2026-04-29 22:35 | 34.26209 | 113.42123 | 22905 ft | 374 kts | 270° |
| 2026-04-29 22:35 | 34.25903 | 113.38948 | 23226 ft | 381 kts | 270° |
| 2026-04-29 22:35 | 34.25595 | 113.35738 | 23531 ft | 389 kts | 270° |
| 2026-04-29 22:35 | 34.25277 | 113.32458 | 23846 ft | 395 kts | 269° |
| 2026-04-29 22:36 | 34.24955 | 113.29110 | 24157 ft | 402 kts | 269° |
| 2026-04-29 22:36 | 34.24620 | 113.25695 | 24436 ft | 408 kts | 269° |
| 2026-04-29 22:36 | 34.24280 | 113.22201 | 24711 ft | 414 kts | 269° |
| 2026-04-29 22:36 | 34.23944 | 113.18741 | 24968 ft | 418 kts | 269° |
| 2026-04-29 22:37 | 34.23595 | 113.15231 | 25216 ft | 421 kts | 269° |
| 2026-04-29 22:37 | 34.23249 | 113.11710 | 25465 ft | 422 kts | 269° |
| 2026-04-29 22:37 | 34.22900 | 113.08150 | 25707 ft | 422 kts | 269° |
| 2026-04-29 22:37 | 34.22553 | 113.04677 | 25946 ft | 421 kts | 269° |
| 2026-04-29 22:38 | 34.22208 | 113.01170 | 26199 ft | 420 kts | 269° |
| 2026-04-29 22:38 | 34.21851 | 112.97597 | 26446 ft | 418 kts | 269° |
| 2026-04-29 22:38 | 34.21502 | 112.94118 | 26692 ft | 416 kts | 269° |
| 2026-04-29 22:38 | 34.21159 | 112.90686 | 26942 ft | 414 kts | 269° |
| 2026-04-29 22:39 | 34.20813 | 112.87234 | 27181 ft | 412 kts | 269° |
| 2026-04-29 22:39 | 34.20462 | 112.83742 | 27430 ft | 410 kts | 269° |
| 2026-04-29 22:39 | 34.20116 | 112.80318 | 27678 ft | 408 kts | 269° |
| 2026-04-29 22:39 | 34.19776 | 112.76960 | 27919 ft | 406 kts | 269° |
| 2026-04-29 22:40 | 34.19427 | 112.73533 | 28160 ft | 405 kts | 269° |
| 2026-04-29 22:40 | 34.19083 | 112.70146 | 28372 ft | 402 kts | 269° |
| 2026-04-29 22:40 | 34.18737 | 112.66772 | 28604 ft | 400 kts | 269° |
| 2026-04-29 22:40 | 34.18395 | 112.63409 | 28831 ft | 398 kts | 269° |
| 2026-04-29 22:41 | 34.18055 | 112.60119 | 29064 ft | 395 kts | 269° |
| 2026-04-29 22:41 | 34.17712 | 112.56773 | 29297 ft | 393 kts | 269° |
| 2026-04-29 22:41 | 34.17371 | 112.53471 | 29545 ft | 392 kts | 270° |
| 2026-04-29 22:41 | 34.17031 | 112.50196 | 29756 ft | 390 kts | 270° |
| 2026-04-29 22:42 | 34.16692 | 112.46921 | 29993 ft | 387 kts | 269° |
| 2026-04-29 22:42 | 34.16358 | 112.43717 | 30200 ft | 385 kts | 270° |
| 2026-04-29 22:42 | 34.16018 | 112.40453 | 30410 ft | 383 kts | 270° |
| 2026-04-29 22:42 | 34.15682 | 112.37276 | 30638 ft | 382 kts | 270° |
| 2026-04-29 22:43 | 34.15350 | 112.34071 | 30852 ft | 380 kts | 270° |
| 2026-04-29 22:43 | 34.15011 | 112.30877 | 31084 ft | 379 kts | 269° |
| 2026-04-29 22:43 | 34.14680 | 112.27714 | 31322 ft | 378 kts | 269° |
| 2026-04-29 22:43 | 34.14347 | 112.24584 | 31552 ft | 377 kts | 269° |
| 2026-04-29 22:44 | 34.14014 | 112.21393 | 31794 ft | 374 kts | 270° |
| 2026-04-29 22:44 | 34.13682 | 112.18302 | 32024 ft | 373 kts | 270° |
| 2026-04-29 22:44 | 34.13354 | 112.15220 | 32258 ft | 371 kts | 270° |
| 2026-04-29 22:44 | 34.13022 | 112.12123 | 32490 ft | 370 kts | 270° |
| 2026-04-29 22:45 | 34.12692 | 112.09026 | 32719 ft | 368 kts | 270° |
| 2026-04-29 22:45 | 34.12363 | 112.05950 | 32955 ft | 366 kts | 270° |
| 2026-04-29 22:45 | 34.12036 | 112.02917 | 33183 ft | 364 kts | 271° |
| 2026-04-29 22:45 | 34.11711 | 111.99892 | 33415 ft | 362 kts | 270° |
| 2026-04-29 22:46 | 34.11386 | 111.96867 | 33656 ft | 359 kts | 270° |
| 2026-04-29 22:46 | 34.11058 | 111.93884 | 33881 ft | 357 kts | 271° |
| 2026-04-29 22:46 | 34.10741 | 111.90919 | 34100 ft | 355 kts | 271° |
| 2026-04-29 22:46 | 34.10422 | 111.87982 | 34217 ft | 356 kts | 271° |
| 2026-04-29 22:47 | 34.10093 | 111.84970 | 34223 ft | 360 kts | 271° |
| 2026-04-29 22:47 | 34.09438 | 111.78935 | 34235 ft | 366 kts | 271° |
| 2026-04-29 22:48 | 34.08764 | 111.72826 | 34232 ft | 369 kts | 270° |
| 2026-04-29 22:48 | 34.08080 | 111.66626 | 34229 ft | 372 kts | 271° |
| 2026-04-29 22:49 | 34.07393 | 111.60432 | 34226 ft | 373 kts | 270° |
| 2026-04-29 22:49 | 34.06698 | 111.54209 | 34226 ft | 374 kts | 271° |
| 2026-04-29 22:50 | 34.05994 | 111.47926 | 34229 ft | 374 kts | 271° |
| 2026-04-29 22:50 | 34.05298 | 111.41724 | 34231 ft | 373 kts | 271° |
| 2026-04-29 22:51 | 34.04594 | 111.35497 | 34233 ft | 373 kts | 271° |
| 2026-04-29 22:51 | 34.03533 | 111.26154 | 34246 ft | 375 kts | 271° |
| 2026-04-29 22:52 | 34.02820 | 111.19920 | 34242 ft | 375 kts | 270° |
| 2026-04-29 22:52 | 34.02110 | 111.13727 | 34229 ft | 374 kts | 271° |
| 2026-04-29 22:53 | 34.01389 | 111.07483 | 34232 ft | 374 kts | 271° |
| 2026-04-29 22:53 | 34.00670 | 111.01285 | 34237 ft | 374 kts | 271° |
| 2026-04-29 22:54 | 33.99944 | 110.95032 | 34231 ft | 373 kts | 271° |
| 2026-04-29 22:54 | 33.99219 | 110.88846 | 34231 ft | 374 kts | 271° |
| 2026-04-29 22:55 | 33.98488 | 110.82606 | 34233 ft | 374 kts | 271° |
| 2026-04-29 22:55 | 33.97753 | 110.76372 | 34230 ft | 374 kts | 270° |
| 2026-04-29 22:56 | 33.97018 | 110.70172 | 34235 ft | 374 kts | 271° |
| 2026-04-29 22:56 | 33.96278 | 110.63963 | 34236 ft | 374 kts | 270° |
| 2026-04-29 22:57 | 33.95535 | 110.57749 | 34230 ft | 374 kts | 270° |
| 2026-04-29 22:57 | 33.94786 | 110.51502 | 34229 ft | 375 kts | 271° |
| 2026-04-29 22:58 | 33.94033 | 110.45270 | 34227 ft | 375 kts | 270° |
| 2026-04-29 22:58 | 33.93284 | 110.39070 | 34231 ft | 374 kts | 270° |
| 2026-04-29 22:59 | 33.92530 | 110.32890 | 34234 ft | 374 kts | 270° |
| 2026-04-29 22:59 | 33.91771 | 110.26691 | 34242 ft | 375 kts | 270° |
| 2026-04-29 23:00 | 33.91016 | 110.20499 | 34232 ft | 376 kts | 270° |
| 2026-04-29 23:00 | 33.90254 | 110.14291 | 34247 ft | 376 kts | 270° |
| 2026-04-29 23:01 | 33.89474 | 110.08040 | 34229 ft | 377 kts | 270° |
| 2026-04-29 23:01 | 33.88708 | 110.01859 | 34227 ft | 376 kts | 270° |
| 2026-04-29 23:02 | 33.87934 | 109.95650 | 34232 ft | 374 kts | 270° |
| 2026-04-29 23:02 | 33.86779 | 109.89495 | 34241 ft | 381 kts | 264° |
| 2026-04-29 23:03 | 33.85437 | 109.83330 | 34230 ft | 381 kts | 264° |
| 2026-04-29 23:03 | 33.84077 | 109.77165 | 34217 ft | 381 kts | 265° |
| 2026-04-29 23:04 | 33.82714 | 109.70965 | 34232 ft | 382 kts | 265° |
| 2026-04-29 23:04 | 33.81342 | 109.64761 | 34225 ft | 382 kts | 264° |
| 2026-04-29 23:05 | 33.79957 | 109.58510 | 34242 ft | 383 kts | 265° |
| 2026-04-29 23:05 | 33.79002 | 109.55479 | 34194 ft | 401 kts | 248° |
| 2026-04-29 23:05 | 33.77070 | 109.52987 | 34283 ft | 425 kts | 226° |
| 2026-04-29 23:06 | 33.74408 | 109.51166 | 34336 ft | 436 kts | 219° |
| 2026-04-29 23:06 | 33.71762 | 109.49353 | 34236 ft | 438 kts | 221° |
| 2026-04-29 23:06 | 33.66470 | 109.45631 | 34241 ft | 441 kts | 221° |
| 2026-04-29 23:07 | 33.61164 | 109.41888 | 34237 ft | 442 kts | 220° |
| 2026-04-29 23:07 | 33.55837 | 109.38133 | 34233 ft | 443 kts | 220° |
| 2026-04-29 23:08 | 33.50463 | 109.34351 | 34239 ft | 443 kts | 220° |
| 2026-04-29 23:08 | 33.45127 | 109.30595 | 34255 ft | 445 kts | 220° |
| 2026-04-29 23:09 | 33.39716 | 109.26801 | 34254 ft | 446 kts | 220° |
| 2026-04-29 23:09 | 33.34361 | 109.23045 | 34260 ft | 446 kts | 220° |
| 2026-04-29 23:10 | 33.28943 | 109.19253 | 34252 ft | 446 kts | 220° |
| 2026-04-29 23:10 | 33.23574 | 109.15501 | 34252 ft | 446 kts | 220° |
| 2026-04-29 23:11 | 33.18216 | 109.11761 | 34249 ft | 447 kts | 220° |
| 2026-04-29 23:11 | 33.12843 | 109.08019 | 34244 ft | 445 kts | 220° |
| 2026-04-29 23:12 | 33.07448 | 109.04263 | 34264 ft | 445 kts | 220° |
| 2026-04-29 23:12 | 33.02068 | 109.00519 | 34248 ft | 446 kts | 220° |
| 2026-04-29 23:13 | 32.96677 | 108.96781 | 34234 ft | 446 kts | 220° |
| 2026-04-29 23:13 | 32.91287 | 108.93052 | 34248 ft | 445 kts | 221° |
| 2026-04-29 23:14 | 32.85894 | 108.89314 | 34237 ft | 443 kts | 220° |
| 2026-04-29 23:14 | 32.80519 | 108.85601 | 34232 ft | 443 kts | 220° |
| 2026-04-29 23:15 | 32.75149 | 108.81897 | 34230 ft | 443 kts | 221° |
| 2026-04-29 23:15 | 32.69827 | 108.78230 | 34232 ft | 444 kts | 220° |
| 2026-04-29 23:16 | 32.64481 | 108.74553 | 34236 ft | 441 kts | 221° |
| 2026-04-29 23:16 | 32.59123 | 108.70868 | 34239 ft | 441 kts | 220° |
| 2026-04-29 23:17 | 32.53818 | 108.67227 | 34246 ft | 441 kts | 220° |
| 2026-04-29 23:17 | 32.48424 | 108.63531 | 34258 ft | 440 kts | 221° |
| 2026-04-29 23:18 | 32.43280 | 108.59676 | 34190 ft | 418 kts | 237° |
| 2026-04-29 23:18 | 32.41742 | 108.56979 | 34320 ft | 380 kts | 258° |
| 2026-04-29 23:18 | 32.40937 | 108.54002 | 34300 ft | 374 kts | 264° |
| 2026-04-29 23:19 | 32.39544 | 108.48043 | 34270 ft | 376 kts | 265° |
| 2026-04-29 23:19 | 32.38201 | 108.42055 | 34266 ft | 377 kts | 265° |
| 2026-04-29 23:20 | 32.36864 | 108.36025 | 34256 ft | 378 kts | 265° |
| 2026-04-29 23:20 | 32.35521 | 108.29990 | 34259 ft | 379 kts | 264° |
| 2026-04-29 23:21 | 32.34141 | 108.23929 | 34250 ft | 382 kts | 263° |
| 2026-04-29 23:21 | 32.32592 | 108.17897 | 34244 ft | 382 kts | 263° |
| 2026-04-29 23:22 | 32.31039 | 108.11833 | 34254 ft | 383 kts | 263° |
| 2026-04-29 23:22 | 32.29472 | 108.05742 | 34240 ft | 383 kts | 263° |
| 2026-04-29 23:23 | 32.27911 | 107.99676 | 34244 ft | 381 kts | 263° |
| 2026-04-29 23:23 | 32.26344 | 107.93617 | 34242 ft | 381 kts | 263° |
| 2026-04-29 23:24 | 32.24802 | 107.87626 | 34245 ft | 380 kts | 263° |
| 2026-04-29 23:24 | 32.23242 | 107.81632 | 34247 ft | 380 kts | 263° |
| 2026-04-29 23:25 | 32.21698 | 107.75651 | 34239 ft | 379 kts | 263° |
| 2026-04-29 23:25 | 32.20151 | 107.69726 | 34238 ft | 378 kts | 262° |
| 2026-04-29 23:26 | 32.18987 | 107.66853 | 34178 ft | 401 kts | 242° |
| 2026-04-29 23:26 | 32.16829 | 107.64645 | 34321 ft | 425 kts | 220° |
| 2026-04-29 23:26 | 32.13932 | 107.63390 | 34235 ft | 453 kts | 200° |
| 2026-04-29 23:26 | 32.10854 | 107.62656 | 34311 ft | 450 kts | 205° |
| 2026-04-29 23:27 | 32.04748 | 107.60632 | 34249 ft | 450 kts | 206° |
| 2026-04-29 23:27 | 31.98708 | 107.58544 | 34244 ft | 451 kts | 207° |
| 2026-04-29 23:28 | 31.92664 | 107.56446 | 34237 ft | 452 kts | 206° |
| 2026-04-29 23:28 | 31.86565 | 107.54346 | 34222 ft | 452 kts | 207° |
| 2026-04-29 23:29 | 31.80509 | 107.52249 | 34230 ft | 452 kts | 207° |
| 2026-04-29 23:29 | 31.74451 | 107.50166 | 34226 ft | 451 kts | 207° |
| 2026-04-29 23:30 | 31.68406 | 107.48087 | 34226 ft | 450 kts | 207° |
| 2026-04-29 23:30 | 31.62374 | 107.46014 | 34228 ft | 449 kts | 207° |
| 2026-04-29 23:31 | 31.56345 | 107.43940 | 34214 ft | 449 kts | 207° |
| 2026-04-29 23:31 | 31.50334 | 107.41881 | 34210 ft | 449 kts | 207° |
| 2026-04-29 23:32 | 31.44296 | 107.39813 | 34202 ft | 448 kts | 207° |
| 2026-04-29 23:32 | 31.38475 | 107.37371 | 34209 ft | 429 kts | 220° |
| 2026-04-29 23:33 | 31.33135 | 107.34139 | 34220 ft | 430 kts | 218° |
| 2026-04-29 23:33 | 31.27788 | 107.30949 | 34227 ft | 430 kts | 218° |
| 2026-04-29 23:34 | 31.22436 | 107.27754 | 34224 ft | 431 kts | 218° |
| 2026-04-29 23:34 | 31.17018 | 107.24531 | 34218 ft | 430 kts | 219° |
| 2026-04-29 23:35 | 31.11720 | 107.21375 | 34221 ft | 429 kts | 218° |
| 2026-04-29 23:35 | 31.06360 | 107.18192 | 34214 ft | 428 kts | 219° |
| 2026-04-29 23:36 | 31.01048 | 107.15041 | 34219 ft | 427 kts | 219° |
| 2026-04-29 23:36 | 30.95706 | 107.11875 | 34212 ft | 427 kts | 219° |
| 2026-04-29 23:37 | 30.90365 | 107.08709 | 34209 ft | 428 kts | 219° |
| 2026-04-29 23:37 | 30.85038 | 107.05559 | 34208 ft | 427 kts | 219° |
| 2026-04-29 23:38 | 30.79673 | 107.02393 | 34199 ft | 426 kts | 219° |
| 2026-04-29 23:38 | 30.74374 | 106.99264 | 34196 ft | 424 kts | 218° |
| 2026-04-29 23:39 | 30.68755 | 106.96743 | 34152 ft | 453 kts | 194° |
| 2026-04-29 23:39 | 30.65556 | 106.96780 | 34341 ft | 459 kts | 188° |
| 2026-04-29 23:39 | 30.62315 | 106.96832 | 34137 ft | 462 kts | 188° |
| 2026-04-29 23:40 | 30.59055 | 106.96879 | 34264 ft | 460 kts | 189° |
| 2026-04-29 23:40 | 30.55842 | 106.96918 | 34187 ft | 462 kts | 189° |
| 2026-04-29 23:40 | 30.49380 | 106.96996 | 34209 ft | 462 kts | 189° |
| 2026-04-29 23:41 | 30.42887 | 106.97073 | 34216 ft | 461 kts | 189° |
| 2026-04-29 23:41 | 30.36410 | 106.97150 | 34217 ft | 460 kts | 189° |
| 2026-04-29 23:42 | 30.30003 | 106.97105 | 34218 ft | 457 kts | 190° |
| 2026-04-29 23:42 | 30.23597 | 106.97025 | 34210 ft | 456 kts | 190° |
| 2026-04-29 23:43 | 30.17192 | 106.96950 | 34208 ft | 455 kts | 190° |
| 2026-04-29 23:43 | 30.10812 | 106.96873 | 34222 ft | 455 kts | 190° |
| 2026-04-29 23:44 | 30.04492 | 106.96796 | 34220 ft | 453 kts | 189° |
| 2026-04-29 23:44 | 29.98146 | 106.96722 | 34217 ft | 452 kts | 190° |
| 2026-04-29 23:45 | 29.91862 | 106.96646 | 34218 ft | 451 kts | 190° |
| 2026-04-29 23:45 | 29.85538 | 106.96568 | 34213 ft | 451 kts | 190° |
| 2026-04-29 23:46 | 29.79250 | 106.96496 | 34218 ft | 451 kts | 189° |
| 2026-04-29 23:46 | 29.72940 | 106.96420 | 34219 ft | 451 kts | 189° |
| 2026-04-29 23:47 | 29.66642 | 106.96343 | 34219 ft | 451 kts | 189° |
| 2026-04-29 23:47 | 29.60374 | 106.96269 | 34228 ft | 450 kts | 189° |
| 2026-04-29 23:48 | 29.54083 | 106.96198 | 34226 ft | 450 kts | 189° |
| 2026-04-29 23:48 | 29.47799 | 106.96118 | 34233 ft | 450 kts | 189° |
| 2026-04-29 23:49 | 29.41504 | 106.96043 | 34239 ft | 450 kts | 189° |
| 2026-04-29 23:49 | 29.35250 | 106.95969 | 34241 ft | 451 kts | 189° |
| 2026-04-29 23:50 | 29.28943 | 106.95892 | 34243 ft | 450 kts | 189° |
| 2026-04-29 23:51 | 29.19501 | 106.95777 | 34253 ft | 451 kts | 189° |
| 2026-04-29 23:51 | 29.16338 | 106.95736 | 33958 ft | 457 kts | 189° |
| 2026-04-29 23:51 | 29.13137 | 106.95694 | 33504 ft | 462 kts | 188° |
| 2026-04-29 23:51 | 29.09920 | 106.95661 | 33109 ft | 465 kts | 188° |
| 2026-04-29 23:52 | 29.06655 | 106.95618 | 32730 ft | 469 kts | 188° |
| 2026-04-29 23:52 | 29.03365 | 106.95579 | 32356 ft | 470 kts | 188° |
| 2026-04-29 23:52 | 29.00075 | 106.95541 | 31982 ft | 472 kts | 188° |
| 2026-04-29 23:52 | 28.96761 | 106.95503 | 31635 ft | 473 kts | 188° |
| 2026-04-29 23:53 | 28.93473 | 106.95460 | 31281 ft | 474 kts | 187° |
| 2026-04-29 23:53 | 28.90148 | 106.95418 | 30536 ft | 476 kts | 187° |
| 2026-04-29 23:53 | 28.86821 | 106.95380 | 29770 ft | 478 kts | 187° |
| 2026-04-29 23:53 | 28.83475 | 106.95338 | 29001 ft | 475 kts | 187° |
| 2026-04-29 23:54 | 28.80122 | 106.95301 | 28231 ft | 478 kts | 186° |
| 2026-04-29 23:54 | 28.76765 | 106.95262 | 27491 ft | 477 kts | 186° |
| 2026-04-29 23:54 | 28.73440 | 106.95222 | 26775 ft | 479 kts | 186° |
| 2026-04-29 23:54 | 28.70099 | 106.95180 | 26054 ft | 479 kts | 186° |
| 2026-04-29 23:55 | 28.66752 | 106.95240 | 25253 ft | 472 kts | 179° |
| 2026-04-29 23:55 | 28.63612 | 106.96238 | 24450 ft | 471 kts | 162° |
| 2026-04-29 23:55 | 28.60608 | 106.97591 | 23746 ft | 459 kts | 163° |
| 2026-04-29 23:55 | 28.57702 | 106.98883 | 22251 ft | 427 kts | 163° |
| 2026-04-29 23:56 | 28.55073 | 107.00046 | 21531 ft | 395 kts | 163° |
| 2026-04-29 23:56 | 28.52523 | 107.01161 | 20738 ft | 392 kts | 162° |
| 2026-04-29 23:56 | 28.49960 | 107.02281 | 19976 ft | 394 kts | 161° |
| 2026-04-29 23:56 | 28.47409 | 107.03406 | 19212 ft | 397 kts | 160° |
| 2026-04-29 23:57 | 28.44815 | 107.04549 | 18429 ft | 398 kts | 160° |
| 2026-04-29 23:57 | 28.42217 | 107.05690 | 18168 ft | 407 kts | 160° |
| 2026-04-29 23:57 | 28.39489 | 107.06900 | 17635 ft | 425 kts | 159° |
| 2026-04-29 23:57 | 28.36718 | 107.08116 | 16792 ft | 428 kts | 159° |
| 2026-04-29 23:58 | 28.33970 | 107.09330 | 16016 ft | 427 kts | 159° |
| 2026-04-29 23:58 | 28.31200 | 107.10545 | 15267 ft | 422 kts | 159° |
| 2026-04-29 23:58 | 28.28485 | 107.11741 | 14567 ft | 416 kts | 159° |
| 2026-04-29 23:58 | 28.25789 | 107.12922 | 13892 ft | 410 kts | 159° |
| 2026-04-29 23:59 | 28.23137 | 107.14086 | 13250 ft | 403 kts | 159° |
| 2026-04-29 23:59 | 28.20513 | 107.15236 | 12610 ft | 398 kts | 159° |
| 2026-04-29 23:59 | 28.17951 | 107.16359 | 11977 ft | 395 kts | 159° |
| 2026-04-29 23:59 | 28.15392 | 107.17476 | 11322 ft | 389 kts | 159° |
| 2026-04-30 00:00 | 28.12862 | 107.18583 | 10599 ft | 380 kts | 159° |
| 2026-04-30 00:00 | 28.10467 | 107.19634 | 9679 ft | 358 kts | 159° |
| 2026-04-30 00:00 | 28.08235 | 107.20605 | 9213 ft | 330 kts | 160° |
| 2026-04-30 00:00 | 28.06119 | 107.21532 | 8959 ft | 317 kts | 159° |
| 2026-04-30 00:01 | 28.04071 | 107.22424 | 8553 ft | 310 kts | 160° |
| 2026-04-30 00:01 | 28.02064 | 107.23304 | 8154 ft | 303 kts | 160° |
| 2026-04-30 00:01 | 28.00122 | 107.24146 | 7763 ft | 296 kts | 159° |
| 2026-04-30 00:01 | 27.98202 | 107.24985 | 7363 ft | 289 kts | 159° |
| 2026-04-30 00:02 | 27.96344 | 107.25782 | 6971 ft | 283 kts | 161° |
| 2026-04-30 00:02 | 27.94449 | 107.26007 | 6370 ft | 270 kts | 187° |
| 2026-04-30 00:02 | 27.92648 | 107.25670 | 5693 ft | 260 kts | 189° |
| 2026-04-30 00:02 | 27.90918 | 107.25326 | 4771 ft | 244 kts | 186° |
| 2026-04-30 00:03 | 27.89329 | 107.25094 | 3989 ft | 214 kts | 185° |
| 2026-04-30 00:03 | 27.87949 | 107.24947 | 3637 ft | 186 kts | 183° |
| 2026-04-30 00:03 | 27.86684 | 107.24853 | 3344 ft | 166 kts | 179° |
| 2026-04-30 00:03 | 27.85628 | 107.24824 | 3252 ft | 144 kts | 181° |
| 2026-04-30 00:04 | 27.84624 | 107.24776 | 3087 ft | 142 kts | 181° |
| 2026-04-30 00:04 | 27.83654 | 107.24724 | 2976 ft | 135 kts | 181° |
| 2026-04-30 00:04 | 27.82724 | 107.24686 | 2822 ft | 131 kts | 180° |
| 2026-04-30 00:04 | 27.81813 | 107.24637 | 2732 ft | 119 kts | 182° |
| 2026-04-30 00:05 | 27.81123 | 107.24600 | 2732 ft | 80 kts | 182° |
| 2026-04-30 00:05 | 27.80693 | 107.24577 | 2732 ft | 43 kts | 182° |
| 2026-04-30 00:05 | 27.80453 | 107.24566 | 2731 ft | 26 kts | 183° |
| 2026-04-30 00:05 | 27.80308 | 107.24557 | 2731 ft | 15 kts | 180° |
| 2026-04-30 00:06 | 27.80235 | 107.24566 | 2731 ft | 5 kts | 139° |
| 2026-04-30 00:06 | 27.80223 | 107.24583 | 2731 ft | 1 kts | 123° |
| 2026-04-30 00:06 | 27.80213 | 107.24621 | 2731 ft | 6 kts | 97° |
| 2026-04-30 00:06 | 27.80209 | 107.24669 | 2731 ft | 6 kts | 91° |
| 2026-04-30 00:07 | 27.80208 | 107.24714 | 2731 ft | 5 kts | 85° |
| 2026-04-30 00:07 | 27.80232 | 107.24737 | 2731 ft | 4 kts | 3° |
| 2026-04-30 00:07 | 27.80264 | 107.24738 | 2731 ft | 4 kts | 2° |
| 2026-04-30 00:07 | 27.80295 | 107.24739 | 2731 ft | 4 kts | 2° |
| 2026-04-30 00:08 | 27.80338 | 107.24742 | 2731 ft | 7 kts | 4° |
| 2026-04-30 00:08 | 27.80387 | 107.24747 | 2731 ft | 4 kts | 7° |
| 2026-04-30 00:08 | 27.80398 | 107.24757 | 2731 ft | 2 kts | 60° |
| 2026-04-30 00:08 | 27.80404 | 107.24779 | 2731 ft | 1 kts | 85° |
| 2026-04-30 00:09 | 27.80403 | 107.24799 | 2731 ft | 3 kts | 94° |
| 2026-04-30 00:09 | 27.80402 | 107.24805 | 2731 ft | 0 kts | 92° |
| 2026-04-30 00:09 | 27.80402 | 107.24826 | 2731 ft | 0 kts | 91° |